createdAt,value
2019-03-02T00:00:02.056Z,21.12
2019-03-02T00:00:37.746Z,21.11
2019-03-02T00:01:13.315Z,21.11
2019-03-02T00:01:48.676Z,21.11
2019-03-02T00:02:24.106Z,21.12
2019-03-02T00:02:59.764Z,21.11
2019-03-02T00:03:34.828Z,21.01
2019-03-02T00:04:10.059Z,21.08
2019-03-02T00:04:45.821Z,21.08
2019-03-02T00:05:24.204Z,21.08
2019-03-02T00:06:00.561Z,21.09
2019-03-02T00:06:35.690Z,21.09
2019-03-02T00:07:11.223Z,21.08
2019-03-02T00:07:47.674Z,21.04
2019-03-02T00:08:21.765Z,21.04
2019-03-02T00:08:59.853Z,21.13
2019-03-02T00:09:34.600Z,21.08
2019-03-02T00:10:09.899Z,21.15
2019-03-02T00:10:44.428Z,21.12
2019-03-02T00:11:17.789Z,21.08
2019-03-02T00:11:56.111Z,21.08
2019-03-02T00:12:32.078Z,21.13
2019-03-02T00:13:07.385Z,21.11
2019-03-02T00:13:43.342Z,21.11
2019-03-02T00:14:19.150Z,21.11
2019-03-02T00:14:54.020Z,21.15
2019-03-02T00:15:30.278Z,21.13
2019-03-02T00:16:04.243Z,21.18
2019-03-02T00:16:43.264Z,21.13
2019-03-02T00:17:19.015Z,21.11
2019-03-02T00:17:54.071Z,21.13
2019-03-02T00:18:29.055Z,21.12
2019-03-02T00:19:02.857Z,21.12
2019-03-02T00:19:41.880Z,21.12
2019-03-02T00:20:14.720Z,21.03
2019-03-02T00:20:55.366Z,21.11
2019-03-02T00:21:31.353Z,21.13
2019-03-02T00:22:06.735Z,21.12
2019-03-02T00:22:43.380Z,21.08
2019-03-02T00:23:18.783Z,21.08
2019-03-02T00:23:54.226Z,21.03
2019-03-02T00:24:26.904Z,21.08
2019-03-02T00:24:59.229Z,21.18
2019-03-02T00:25:34.080Z,21.13
2019-03-02T00:26:10.159Z,21.11
2019-03-02T00:26:45.935Z,21.11
2019-03-02T00:27:21.179Z,21.08
2019-03-02T00:27:54.036Z,21.12
2019-03-02T00:28:32.654Z,21.13
2019-03-02T00:29:11.033Z,21.11
2019-03-02T00:29:45.840Z,21.13
2019-03-02T00:30:21.066Z,21.09
2019-03-02T00:30:54.747Z,21.12
2019-03-02T00:31:33.201Z,21.15
2019-03-02T00:32:09.223Z,21.18
2019-03-02T00:32:45.012Z,21.11
2019-03-02T00:33:19.667Z,21.09
2019-03-02T00:33:53.662Z,21.12
2019-03-02T00:34:31.818Z,21.12
2019-03-02T00:35:07.143Z,21.03
2019-03-02T00:35:43.573Z,21.15
2019-03-02T00:36:19.390Z,21.09
2019-03-02T00:36:54.852Z,21.13
2019-03-02T00:37:32.791Z,21.13
2019-03-02T00:38:08.711Z,21.11
2019-03-02T00:38:43.431Z,21.16
2019-03-02T00:39:19.051Z,21.15
2019-03-02T00:39:54.519Z,21.13
2019-03-02T00:40:30.293Z,21.16
2019-03-02T00:41:06.892Z,21.12
2019-03-02T00:41:42.098Z,21.12
2019-03-02T00:42:16.971Z,21.11
2019-03-02T00:42:51.865Z,21.12
2019-03-02T00:43:27.011Z,21.11
2019-03-02T00:44:03.483Z,21.08
2019-03-02T00:44:38.541Z,21.11
2019-03-02T00:45:14.078Z,21.18
2019-03-02T00:45:48.851Z,21.12
2019-03-02T00:46:23.837Z,21.16
2019-03-02T00:46:59.572Z,21.09
2019-03-02T00:47:35.206Z,21.08
2019-03-02T00:48:10.998Z,21.13
2019-03-02T00:48:46.900Z,21.09
2019-03-02T00:49:19.425Z,21.13
2019-03-02T00:49:57.084Z,21.11
2019-03-02T00:50:36.479Z,21.11
2019-03-02T00:51:11.164Z,21.11
2019-03-02T00:51:46.212Z,21.09
2019-03-02T00:52:20.403Z,21.09
2019-03-02T00:52:59.096Z,21.06
2019-03-02T00:53:35.207Z,21.08
2019-03-02T00:54:11.310Z,21.13
2019-03-02T00:54:46.260Z,21.13
2019-03-02T00:55:31.734Z,21.03
2019-03-02T00:56:07.724Z,21.09
2019-03-02T00:56:42.783Z,21.12
2019-03-02T00:57:18.594Z,21.13
2019-03-02T00:57:53.636Z,21.06
2019-03-02T00:58:28.937Z,21.11
2019-03-02T00:59:03.891Z,21.16
2019-03-02T00:59:39.286Z,21.11
2019-03-02T01:00:15.232Z,21.13
2019-03-02T01:00:49.886Z,21.09
2019-03-02T01:01:28.632Z,21.09
2019-03-02T01:02:04.322Z,21.11
2019-03-02T01:02:39.600Z,21.08
2019-03-02T01:03:15.579Z,21.06
2019-03-02T01:03:50.572Z,21.12
2019-03-02T01:04:25.976Z,21.12
2019-03-02T01:05:01.582Z,21.06
2019-03-02T01:05:36.301Z,21.11
2019-03-02T01:06:12.309Z,21.12
2019-03-02T01:06:48.694Z,21.06
2019-03-02T01:07:23.584Z,21.12
2019-03-02T01:07:59.645Z,21.08
2019-03-02T01:08:35.004Z,21.13
2019-03-02T01:09:07.837Z,21.12
2019-03-02T01:09:46.441Z,21.12
2019-03-02T01:10:22.587Z,21.13
2019-03-02T01:10:58.100Z,21.13
2019-03-02T01:11:32.850Z,21.11
2019-03-02T01:12:09.054Z,21.09
2019-03-02T01:12:43.757Z,21.06
2019-03-02T01:13:19.781Z,21.01
2019-03-02T01:13:56.809Z,21.09
2019-03-02T01:14:31.821Z,21.11
2019-03-02T01:15:08.392Z,21.01
2019-03-02T01:15:43.989Z,21.11
2019-03-02T01:16:16.679Z,21.08
2019-03-02T01:16:55.100Z,21.08
2019-03-02T01:17:30.741Z,21.11
2019-03-02T01:18:03.644Z,21.09
2019-03-02T01:18:42.322Z,21
2019-03-02T01:19:17.584Z,21.13
2019-03-02T01:19:52.565Z,21.09
2019-03-02T01:20:28.577Z,21.06
2019-03-02T01:21:03.865Z,21.12
2019-03-02T01:21:37.436Z,21.04
2019-03-02T01:22:16.519Z,21.12
2019-03-02T01:22:51.752Z,21.09
2019-03-02T01:23:27.444Z,21.13
2019-03-02T01:24:03.234Z,21.08
2019-03-02T01:24:38.876Z,21.09
2019-03-02T01:25:13.311Z,21.06
2019-03-02T01:25:48.843Z,21.04
2019-03-02T01:26:23.803Z,21.08
2019-03-02T01:26:59.380Z,21.08
2019-03-02T01:27:35.035Z,21
2019-03-02T01:28:09.647Z,21.04
2019-03-02T01:28:44.494Z,21.12
2019-03-02T01:29:18.980Z,21.04
2019-03-02T01:29:54.615Z,21.11
2019-03-02T01:30:29.921Z,21.11
2019-03-02T01:31:05.077Z,21.11
2019-03-02T01:31:40.649Z,21.11
2019-03-02T01:32:16.113Z,21.06
2019-03-02T01:32:52.597Z,21
2019-03-02T01:33:28.507Z,21.11
2019-03-02T01:34:04.431Z,21.13
2019-03-02T01:34:42.233Z,21.08
2019-03-02T01:35:16.374Z,21.09
2019-03-02T01:35:53.872Z,21
2019-03-02T01:36:32.204Z,21.04
2019-03-02T01:37:08.043Z,21.13
2019-03-02T01:37:43.849Z,21.11
2019-03-02T01:38:18.581Z,21.12
2019-03-02T01:38:53.922Z,21.06
2019-03-02T01:39:29.076Z,21.11
2019-03-02T01:40:04.798Z,21.09
2019-03-02T01:40:40.727Z,21.06
2019-03-02T01:41:13.942Z,21
2019-03-02T01:41:50.938Z,21.11
2019-03-02T01:42:29.675Z,21.04
2019-03-02T01:43:04.870Z,21.11
2019-03-02T01:43:40.302Z,21.08
2019-03-02T01:44:16.229Z,21.09
2019-03-02T01:44:51.621Z,21.08
2019-03-02T01:45:27.661Z,21.18
2019-03-02T01:46:03.262Z,21.06
2019-03-02T01:46:37.482Z,21.09
2019-03-02T01:47:15.728Z,21.13
2019-03-02T01:47:51.080Z,21.11
2019-03-02T01:48:26.475Z,21.15
2019-03-02T01:49:01.518Z,21.11
2019-03-02T01:49:36.565Z,21.08
2019-03-02T01:50:11.889Z,21.08
2019-03-02T01:50:47.667Z,21.08
2019-03-02T01:51:23.065Z,21.08
2019-03-02T01:51:58.152Z,21.11
2019-03-02T01:52:34.116Z,21.13
2019-03-02T01:53:09.859Z,21.09
2019-03-02T01:53:45.556Z,21.13
2019-03-02T01:54:21.211Z,21.18
2019-03-02T01:54:55.715Z,21.04
2019-03-02T01:55:31.144Z,21.13
2019-03-02T01:56:06.053Z,21.15
2019-03-02T01:56:41.288Z,21.11
2019-03-02T01:57:17.137Z,21.13
2019-03-02T01:57:52.217Z,21.15
2019-03-02T01:58:27.983Z,21.13
2019-03-02T01:59:03.688Z,21.12
2019-03-02T01:59:38.657Z,21.16
2019-03-02T02:00:13.746Z,21.09
2019-03-02T02:00:49.109Z,21.18
2019-03-02T02:01:24.729Z,21.18
2019-03-02T02:02:00.046Z,21.09
2019-03-02T02:02:36.061Z,21.12
2019-03-02T02:03:12.010Z,21.12
2019-03-02T02:03:46.968Z,21.12
2019-03-02T02:04:22.645Z,21.12
2019-03-02T02:04:57.433Z,21.15
2019-03-02T02:05:31.914Z,21.09
2019-03-02T02:06:07.278Z,21.09
2019-03-02T02:06:42.738Z,21.16
2019-03-02T02:07:17.977Z,21.09
2019-03-02T02:07:54.116Z,21.12
2019-03-02T02:08:29.752Z,21.09
2019-03-02T02:09:05.615Z,21.15
2019-03-02T02:09:40.509Z,21.13
2019-03-02T02:10:13.157Z,21.13
2019-03-02T02:10:45.294Z,21.13
2019-03-02T02:11:17.992Z,21.13
2019-03-02T02:11:53.224Z,21.12
2019-03-02T02:12:28.729Z,21.21
2019-03-02T02:13:02.692Z,21.11
2019-03-02T02:13:38.845Z,21.18
2019-03-02T02:14:18.529Z,21.12
2019-03-02T02:14:54.400Z,21.12
2019-03-02T02:15:29.296Z,21.09
2019-03-02T02:16:05.606Z,21.09
2019-03-02T02:16:38.789Z,21.16
2019-03-02T02:17:14.394Z,21.15
2019-03-02T02:17:52.915Z,21.13
2019-03-02T02:18:27.620Z,21.11
2019-03-02T02:19:02.422Z,21.11
2019-03-02T02:19:38.571Z,21.09
2019-03-02T02:20:14.503Z,21.12
2019-03-02T02:20:50.253Z,21.15
2019-03-02T02:21:23.595Z,21.18
2019-03-02T02:22:01.870Z,21.19
2019-03-02T02:22:34.809Z,21.19
2019-03-02T02:23:13.206Z,21.11
2019-03-02T02:23:49.643Z,21.09
2019-03-02T02:24:24.814Z,21.12
2019-03-02T02:25:00.389Z,21.16
2019-03-02T02:25:35.628Z,21.18
2019-03-02T02:26:11.252Z,21.16
2019-03-02T02:26:46.855Z,21.15
2019-03-02T02:27:22.411Z,21.09
2019-03-02T02:27:57.797Z,21.12
2019-03-02T02:28:32.216Z,21.18
2019-03-02T02:29:08.106Z,21.15
2019-03-02T02:29:43.482Z,21.11
2019-03-02T02:30:18.648Z,21.15
2019-03-02T02:31:01.570Z,21.15
2019-03-02T02:31:44.144Z,21.15
2019-03-02T02:32:19.051Z,21.16
2019-03-02T02:33:03.696Z,21.09
2019-03-02T02:33:42.193Z,21.12
2019-03-02T02:34:20.959Z,21.12
2019-03-02T02:34:56.326Z,21.15
2019-03-02T02:35:39.256Z,21.16
2019-03-02T02:36:14.000Z,21.11
2019-03-02T02:36:52.943Z,21.18
2019-03-02T02:37:32.128Z,21.12
2019-03-02T02:38:11.051Z,21.09
2019-03-02T02:38:53.550Z,21.11
2019-03-02T02:39:28.833Z,21.13
2019-03-02T02:40:07.918Z,21.12
2019-03-02T02:40:45.215Z,21.15
2019-03-02T02:41:21.892Z,21.21
2019-03-02T02:41:59.933Z,21.11
2019-03-02T02:42:38.949Z,21.13
2019-03-02T02:43:20.119Z,21.15
2019-03-02T02:43:58.604Z,21.16
2019-03-02T02:44:33.016Z,21.16
2019-03-02T02:45:10.953Z,21.18
2019-03-02T02:45:48.859Z,21.18
2019-03-02T02:46:27.278Z,21.18
2019-03-02T02:47:06.993Z,21.12
2019-03-02T02:47:50.159Z,21.12
2019-03-02T02:48:30.474Z,21.15
2019-03-02T02:49:05.218Z,21.19
2019-03-02T02:49:44.230Z,21.22
2019-03-02T02:50:29.001Z,21.16
2019-03-02T02:51:04.136Z,21.16
2019-03-02T02:51:44.289Z,21.18
2019-03-02T02:52:27.449Z,21.22
2019-03-02T02:53:05.828Z,21.21
2019-03-02T02:53:44.646Z,21.11
2019-03-02T02:54:22.329Z,21.18
2019-03-02T02:54:57.356Z,21.12
2019-03-02T02:55:40.476Z,21.12
2019-03-02T02:56:14.188Z,21.16
2019-03-02T02:56:54.050Z,21.09
2019-03-02T02:57:33.476Z,21.16
2019-03-02T02:58:12.460Z,21.13
2019-03-02T02:58:55.246Z,21.15
2019-03-02T02:59:33.874Z,21.12
2019-03-02T03:00:11.988Z,21.13
2019-03-02T03:00:49.990Z,21.13
2019-03-02T03:01:32.742Z,21.13
2019-03-02T03:02:10.704Z,21.12
2019-03-02T03:02:44.027Z,21.09
2019-03-02T03:03:20.671Z,21.18
2019-03-02T03:03:54.730Z,21.13
2019-03-02T03:04:36.656Z,21.09
2019-03-02T03:05:14.638Z,21.13
2019-03-02T03:05:53.633Z,21.15
2019-03-02T03:06:28.397Z,21.11
2019-03-02T03:07:07.052Z,21.09
2019-03-02T03:07:51.655Z,21.09
2019-03-02T03:08:27.791Z,21.11
2019-03-02T03:09:09.327Z,21.21
2019-03-02T03:09:45.247Z,21.12
2019-03-02T03:10:23.245Z,21.12
2019-03-02T03:11:01.495Z,21.12
2019-03-02T03:11:43.525Z,21.11
2019-03-02T03:12:17.821Z,21.09
2019-03-02T03:12:56.649Z,21.19
2019-03-02T03:13:40.482Z,21.11
2019-03-02T03:14:14.901Z,21.15
2019-03-02T03:14:54.061Z,21.11
2019-03-02T03:15:35.929Z,21.16
2019-03-02T03:16:11.470Z,21.12
2019-03-02T03:16:53.510Z,21.19
2019-03-02T03:17:28.045Z,21.11
2019-03-02T03:18:06.881Z,21.13
2019-03-02T03:18:46.871Z,21.16
2019-03-02T03:19:25.942Z,21.12
2019-03-02T03:20:05.416Z,21.11
2019-03-02T03:20:47.524Z,21.23
2019-03-02T03:21:26.765Z,21.19
2019-03-02T03:22:02.110Z,21.15
2019-03-02T03:22:40.807Z,21.16
2019-03-02T03:23:19.828Z,21.09
2019-03-02T03:24:02.732Z,21.12
2019-03-02T03:24:40.431Z,21.13
2019-03-02T03:25:13.828Z,21.09
2019-03-02T03:25:55.870Z,21.13
2019-03-02T03:26:30.805Z,21.09
2019-03-02T03:27:08.818Z,21.13
2019-03-02T03:27:47.390Z,21.15
2019-03-02T03:28:25.895Z,21.18
2019-03-02T03:29:05.177Z,21.16
2019-03-02T03:29:44.370Z,21.18
2019-03-02T03:30:32.810Z,21.11
2019-03-02T03:31:20.807Z,21.12
2019-03-02T03:32:08.885Z,21.15
2019-03-02T03:32:54.126Z,21.12
2019-03-02T03:33:41.253Z,21.15
2019-03-02T03:34:28.283Z,21.18
2019-03-02T03:35:15.176Z,21.13
2019-03-02T03:35:55.680Z,21.11
2019-03-02T03:36:29.995Z,21.09
2019-03-02T03:37:08.250Z,21.12
2019-03-02T03:37:50.414Z,21.12
2019-03-02T03:38:24.792Z,21.12
2019-03-02T03:39:02.599Z,21.08
2019-03-02T03:39:46.250Z,21.16
2019-03-02T03:40:24.864Z,21.15
2019-03-02T03:41:00.060Z,21.15
2019-03-02T03:41:42.617Z,21.13
2019-03-02T03:42:22.169Z,21.11
2019-03-02T03:43:01.940Z,21.11
2019-03-02T03:43:41.382Z,21.16
2019-03-02T03:44:17.084Z,21.15
2019-03-02T03:44:59.692Z,21.18
2019-03-02T03:45:42.041Z,21.15
2019-03-02T03:46:17.683Z,21.11
2019-03-02T03:46:56.020Z,21.12
2019-03-02T03:47:38.239Z,21.15
2019-03-02T03:48:12.854Z,21.13
2019-03-02T03:48:51.213Z,21.09
2019-03-02T03:49:29.924Z,21.13
2019-03-02T03:50:09.083Z,21.19
2019-03-02T03:50:47.942Z,21.12
2019-03-02T03:51:26.011Z,21.11
2019-03-02T03:52:08.703Z,21.15
2019-03-02T03:52:43.942Z,21.09
2019-03-02T03:53:26.245Z,21.18
2019-03-02T03:54:06.698Z,21.18
2019-03-02T03:54:44.845Z,21.18
2019-03-02T03:55:23.640Z,21.13
2019-03-02T03:56:03.959Z,21.15
2019-03-02T03:56:37.583Z,21.19
2019-03-02T03:57:16.992Z,21.15
2019-03-02T03:57:59.798Z,21.19
2019-03-02T03:58:34.935Z,21.15
2019-03-02T03:59:14.140Z,21.15
2019-03-02T03:59:53.341Z,21.12
2019-03-02T04:00:33.994Z,21.15
2019-03-02T04:01:16.682Z,21.13
2019-03-02T04:01:51.999Z,21.15
2019-03-02T04:02:31.086Z,21.21
2019-03-02T04:03:08.784Z,21.23
2019-03-02T04:03:46.909Z,21.15
2019-03-02T04:04:28.788Z,21.19
2019-03-02T04:05:06.806Z,21.18
2019-03-02T04:05:42.026Z,21.22
2019-03-02T04:06:23.288Z,21.21
2019-03-02T04:07:01.215Z,21.18
2019-03-02T04:07:48.127Z,21.18
2019-03-02T04:08:24.201Z,21.16
2019-03-02T04:09:03.092Z,21.19
2019-03-02T04:09:42.785Z,21.15
2019-03-02T04:10:25.534Z,21.19
2019-03-02T04:11:00.075Z,21.23
2019-03-02T04:11:37.682Z,21.15
2019-03-02T04:12:19.723Z,21.16
2019-03-02T04:13:03.610Z,21.19
2019-03-02T04:13:43.881Z,21.22
2019-03-02T04:14:18.991Z,21.23
2019-03-02T04:14:56.780Z,21.21
2019-03-02T04:15:40.577Z,21.22
2019-03-02T04:16:16.088Z,21.21
2019-03-02T04:16:55.568Z,21.23
2019-03-02T04:17:34.002Z,21.25
2019-03-02T04:18:12.541Z,21.21
2019-03-02T04:18:50.029Z,21.22
2019-03-02T04:19:33.906Z,21.21
2019-03-02T04:20:07.908Z,21.19
2019-03-02T04:20:45.590Z,21.23
2019-03-02T04:21:23.184Z,21.21
2019-03-02T04:22:01.872Z,21.18
2019-03-02T04:22:39.800Z,21.25
2019-03-02T04:23:17.984Z,21.21
2019-03-02T04:23:56.065Z,21.22
2019-03-02T04:24:34.891Z,21.25
2019-03-02T04:25:12.904Z,21.21
2019-03-02T04:25:52.007Z,21.21
2019-03-02T04:26:31.285Z,21.21
2019-03-02T04:27:10.915Z,21.21
2019-03-02T04:27:53.065Z,21.21
2019-03-02T04:28:31.325Z,21.34
2019-03-02T04:29:08.683Z,21.11
2019-03-02T04:29:48.771Z,21.25
2019-03-02T04:30:31.208Z,21.18
2019-03-02T04:31:08.935Z,21.21
2019-03-02T04:31:43.838Z,21.23
2019-03-02T04:32:26.999Z,21.25
2019-03-02T04:33:01.634Z,21.25
2019-03-02T04:33:42.767Z,21.21
2019-03-02T04:34:21.006Z,21.3
2019-03-02T04:34:57.667Z,21.19
2019-03-02T04:35:33.636Z,21.23
2019-03-02T04:36:09.971Z,21.21
2019-03-02T04:36:46.797Z,21.21
2019-03-02T04:37:23.729Z,21.22
2019-03-02T04:38:00.521Z,21.22
2019-03-02T04:38:36.992Z,21.31
2019-03-02T04:39:13.567Z,21.22
2019-03-02T04:39:49.944Z,21.22
2019-03-02T04:40:23.249Z,21.33
2019-03-02T04:41:00.647Z,21.22
2019-03-02T04:41:39.497Z,21.27
2019-03-02T04:42:14.559Z,21.25
2019-03-02T04:42:50.090Z,21.16
2019-03-02T04:43:23.254Z,21.21
2019-03-02T04:43:55.235Z,21.28
2019-03-02T04:44:29.593Z,21.28
2019-03-02T04:45:04.913Z,21.22
2019-03-02T04:45:39.662Z,21.25
2019-03-02T04:46:15.374Z,21.31
2019-03-02T04:46:51.269Z,21.3
2019-03-02T04:47:26.206Z,21.25
2019-03-02T04:47:59.771Z,21.31
2019-03-02T04:48:39.255Z,21.31
2019-03-02T04:49:14.532Z,21.27
2019-03-02T04:49:47.455Z,21.23
2019-03-02T04:50:26.927Z,21.22
2019-03-02T04:51:02.547Z,21.34
2019-03-02T04:51:38.528Z,21.19
2019-03-02T04:52:14.499Z,21.21
2019-03-02T04:52:49.907Z,21.21
2019-03-02T04:53:24.978Z,21.22
2019-03-02T04:53:57.941Z,21.21
2019-03-02T04:54:37.182Z,21.23
2019-03-02T04:55:13.344Z,21.22
2019-03-02T04:55:48.507Z,21.19
2019-03-02T04:56:24.069Z,21.23
2019-03-02T04:56:58.858Z,21.18
2019-03-02T04:57:32.993Z,21.31
2019-03-02T04:58:11.848Z,21.23
2019-03-02T04:58:46.898Z,21.21
2019-03-02T04:59:21.880Z,21.18
2019-03-02T04:59:56.609Z,21.28
2019-03-02T05:00:31.909Z,21.23
2019-03-02T05:01:06.837Z,21.25
2019-03-02T05:01:43.109Z,21.25
2019-03-02T05:02:19.606Z,21.33
2019-03-02T05:02:55.121Z,21.21
2019-03-02T05:03:27.794Z,21.3
2019-03-02T05:03:59.769Z,21.28
2019-03-02T05:04:32.231Z,21.23
2019-03-02T05:05:08.195Z,21.23
2019-03-02T05:05:43.405Z,21.27
2019-03-02T05:06:18.882Z,21.31
2019-03-02T05:06:54.418Z,21.3
2019-03-02T05:07:30.136Z,21.27
2019-03-02T05:08:05.145Z,21.22
2019-03-02T05:08:41.080Z,21.23
2019-03-02T05:09:17.091Z,21.23
2019-03-02T05:09:51.982Z,21.31
2019-03-02T05:10:28.257Z,21.3
2019-03-02T05:11:03.543Z,21.28
2019-03-02T05:11:39.202Z,21.23
2019-03-02T05:12:14.566Z,21.19
2019-03-02T05:12:49.628Z,21.21
2019-03-02T05:13:28.271Z,21.28
2019-03-02T05:14:04.238Z,21.23
2019-03-02T05:14:40.147Z,21.27
2019-03-02T05:15:15.916Z,21.28
2019-03-02T05:15:52.279Z,21.31
2019-03-02T05:16:25.433Z,21.22
2019-03-02T05:17:03.380Z,21.25
2019-03-02T05:17:42.779Z,21.25
2019-03-02T05:18:18.084Z,21.27
2019-03-02T05:18:53.391Z,21.27
2019-03-02T05:19:29.083Z,21.28
2019-03-02T05:20:04.750Z,21.25
2019-03-02T05:20:40.895Z,21.25
2019-03-02T05:21:13.955Z,21.27
2019-03-02T05:21:45.942Z,21.3
2019-03-02T05:22:18.716Z,21.33
2019-03-02T05:22:54.603Z,21.27
2019-03-02T05:23:30.495Z,21.25
2019-03-02T05:24:08.949Z,21.3
2019-03-02T05:24:43.503Z,21.33
2019-03-02T05:25:19.030Z,21.28
2019-03-02T05:25:54.548Z,21.22
2019-03-02T05:26:27.054Z,21.31
2019-03-02T05:26:59.039Z,21.28
2019-03-02T05:27:31.923Z,21.33
2019-03-02T05:28:07.225Z,21.27
2019-03-02T05:28:42.951Z,21.23
2019-03-02T05:29:17.667Z,21.27
2019-03-02T05:29:50.667Z,21.3
2019-03-02T05:30:30.429Z,21.36
2019-03-02T05:31:06.107Z,21.28
2019-03-02T05:31:40.861Z,21.28
2019-03-02T05:32:15.975Z,21.36
2019-03-02T05:32:51.211Z,21.33
2019-03-02T05:33:28.839Z,21.25
2019-03-02T05:34:04.441Z,21.28
2019-03-02T05:34:39.700Z,21.33
2019-03-02T05:35:15.374Z,21.34
2019-03-02T05:35:50.816Z,21.31
2019-03-02T05:36:26.810Z,21.33
2019-03-02T05:37:02.798Z,21.31
2019-03-02T05:37:39.079Z,21.31
2019-03-02T05:38:15.139Z,21.27
2019-03-02T05:38:47.723Z,21.33
2019-03-02T05:39:19.682Z,21.34
2019-03-02T05:39:52.820Z,21.33
2019-03-02T05:40:27.742Z,21.33
2019-03-02T05:41:02.577Z,21.33
2019-03-02T05:41:38.748Z,21.37
2019-03-02T05:42:13.582Z,21.28
2019-03-02T05:42:50.841Z,21.36
2019-03-02T05:43:27.070Z,21.28
2019-03-02T05:43:59.946Z,21.33
2019-03-02T05:44:31.948Z,21.28
2019-03-02T05:45:03.987Z,21.34
2019-03-02T05:45:35.973Z,21.37
2019-03-02T05:46:07.940Z,21.33
2019-03-02T05:46:39.989Z,21.33
2019-03-02T05:47:11.970Z,21.31
2019-03-02T05:47:43.954Z,21.33
2019-03-02T05:48:15.955Z,21.31
2019-03-02T05:48:47.929Z,21.28
2019-03-02T05:49:19.911Z,21.33
2019-03-02T05:49:54.541Z,21.31
2019-03-02T05:50:30.213Z,21.33
2019-03-02T05:51:03.752Z,21.37
2019-03-02T05:51:42.438Z,21.36
2019-03-02T05:52:17.752Z,21.31
2019-03-02T05:52:50.691Z,21.34
2019-03-02T05:53:29.802Z,21.34
2019-03-02T05:54:06.048Z,21.34
2019-03-02T05:54:41.502Z,21.33
2019-03-02T05:55:17.704Z,21.34
2019-03-02T05:55:53.592Z,21.34
2019-03-02T05:56:29.229Z,21.33
2019-03-02T05:57:04.046Z,21.31
2019-03-02T05:57:40.410Z,21.33
2019-03-02T05:58:15.786Z,21.25
2019-03-02T05:58:51.084Z,21.33
2019-03-02T05:59:26.517Z,21.36
2019-03-02T06:00:01.641Z,21.34
2019-03-02T06:00:37.564Z,21.3
2019-03-02T06:01:10.673Z,21.3
2019-03-02T06:01:42.700Z,21.28
2019-03-02T06:02:17.206Z,21.31
2019-03-02T06:02:50.104Z,21.33
2019-03-02T06:03:22.066Z,21.31
2019-03-02T06:03:54.108Z,21.33
2019-03-02T06:04:26.297Z,21.31
2019-03-02T06:04:58.282Z,21.37
2019-03-02T06:05:30.337Z,21.33
2019-03-02T06:06:02.317Z,21.34
2019-03-02T06:06:34.288Z,21.31
2019-03-02T06:07:06.270Z,21.33
2019-03-02T06:07:38.256Z,21.34
2019-03-02T06:08:10.229Z,21.34
2019-03-02T06:08:42.210Z,21.33
2019-03-02T06:09:14.847Z,21.31
2019-03-02T06:09:50.064Z,21.36
2019-03-02T06:10:25.262Z,21.31
2019-03-02T06:11:01.569Z,21.34
2019-03-02T06:11:39.256Z,21.31
2019-03-02T06:12:15.435Z,21.36
2019-03-02T06:12:51.449Z,21.31
2019-03-02T06:13:27.945Z,21.31
2019-03-02T06:14:01.402Z,21.36
2019-03-02T06:14:33.378Z,21.34
2019-03-02T06:15:07.535Z,21.31
2019-03-02T06:15:42.872Z,21.33
2019-03-02T06:16:18.645Z,21.33
2019-03-02T06:16:57.317Z,21.33
2019-03-02T06:17:33.130Z,21.36
2019-03-02T06:18:07.655Z,21.28
2019-03-02T06:18:42.487Z,21.33
2019-03-02T06:19:23.209Z,21.28
2019-03-02T06:19:59.148Z,21.3
2019-03-02T06:20:32.513Z,21.34
2019-03-02T06:21:10.769Z,21.36
2019-03-02T06:21:46.275Z,21.3
2019-03-02T06:22:21.054Z,21.34
2019-03-02T06:22:55.446Z,21.34
2019-03-02T06:23:29.963Z,21.34
2019-03-02T06:24:05.324Z,21.31
2019-03-02T06:24:41.017Z,21.34
2019-03-02T06:25:20.347Z,21.3
2019-03-02T06:25:55.056Z,21.3
2019-03-02T06:26:31.685Z,21.27
2019-03-02T06:27:10.826Z,21.3
2019-03-02T06:27:47.004Z,21.31
2019-03-02T06:28:22.975Z,21.28
2019-03-02T06:28:57.807Z,21.34
2019-03-02T06:29:32.720Z,21.33
2019-03-02T06:30:08.324Z,21.31
2019-03-02T06:30:44.026Z,21.33
2019-03-02T06:31:19.080Z,21.3
2019-03-02T06:31:53.934Z,21.36
2019-03-02T06:32:29.834Z,21.33
2019-03-02T06:33:08.336Z,21.33
2019-03-02T06:33:44.023Z,21.37
2019-03-02T06:34:19.690Z,21.36
2019-03-02T06:34:55.751Z,21.31
2019-03-02T06:35:28.972Z,21.3
2019-03-02T06:36:08.632Z,21.37
2019-03-02T06:36:44.622Z,21.36
2019-03-02T06:37:19.912Z,21.33
2019-03-02T06:37:56.096Z,21.37
2019-03-02T06:38:32.079Z,21.4
2019-03-02T06:39:07.720Z,21.31
2019-03-02T06:39:40.925Z,21.38
2019-03-02T06:40:19.698Z,21.36
2019-03-02T06:40:58.026Z,21.31
2019-03-02T06:41:33.143Z,21.34
2019-03-02T06:42:06.034Z,21.34
2019-03-02T06:42:45.635Z,21.34
2019-03-02T06:43:21.725Z,21.37
2019-03-02T06:43:55.009Z,21.31
2019-03-02T06:44:30.765Z,21.3
2019-03-02T06:45:08.895Z,21.31
2019-03-02T06:45:43.462Z,21.34
2019-03-02T06:46:19.698Z,21.36
2019-03-02T06:46:58.222Z,21.34
2019-03-02T06:47:33.336Z,21.36
2019-03-02T06:48:09.528Z,21.36
2019-03-02T06:48:45.096Z,21.34
2019-03-02T06:49:19.870Z,21.33
2019-03-02T06:49:58.996Z,21.43
2019-03-02T06:50:35.602Z,21.37
2019-03-02T06:51:11.198Z,21.34
2019-03-02T06:51:47.212Z,21.36
2019-03-02T06:52:24.995Z,21.4
2019-03-02T06:53:01.324Z,21.38
2019-03-02T06:53:37.048Z,21.4
2019-03-02T06:54:12.881Z,21.4
2019-03-02T06:54:48.259Z,21.4
2019-03-02T06:55:24.345Z,21.4
2019-03-02T06:56:00.708Z,21.38
2019-03-02T06:56:35.871Z,21.37
2019-03-02T06:57:14.018Z,21.37
2019-03-02T06:57:49.801Z,21.4
2019-03-02T06:58:26.610Z,21.37
2019-03-02T06:59:04.100Z,21.38
2019-03-02T06:59:39.291Z,21.38
2019-03-02T07:00:13.911Z,21.41
2019-03-02T07:00:48.829Z,21.4
2019-03-02T07:01:24.698Z,21.41
2019-03-02T07:01:59.648Z,21.41
2019-03-02T07:02:35.050Z,21.36
2019-03-02T07:03:10.048Z,21.37
2019-03-02T07:03:45.619Z,21.43
2019-03-02T07:04:21.839Z,21.43
2019-03-02T07:04:55.003Z,21.48
2019-03-02T07:05:33.665Z,21.45
2019-03-02T07:06:11.613Z,21.41
2019-03-02T07:06:46.848Z,21.46
2019-03-02T07:07:21.717Z,21.43
2019-03-02T07:07:57.275Z,21.37
2019-03-02T07:08:32.704Z,21.37
2019-03-02T07:09:09.465Z,21.52
2019-03-02T07:09:45.216Z,21.41
2019-03-02T07:10:21.409Z,21.37
2019-03-02T07:10:57.873Z,21.45
2019-03-02T07:11:33.522Z,21.45
2019-03-02T07:12:09.413Z,21.51
2019-03-02T07:12:45.573Z,21.48
2019-03-02T07:13:21.132Z,21.49
2019-03-02T07:13:56.313Z,21.46
2019-03-02T07:14:32.230Z,21.45
2019-03-02T07:15:07.888Z,21.49
2019-03-02T07:15:43.672Z,21.51
2019-03-02T07:16:20.030Z,21.48
2019-03-02T07:16:55.866Z,21.49
2019-03-02T07:17:30.870Z,21.53
2019-03-02T07:18:06.084Z,21.48
2019-03-02T07:18:42.346Z,21.52
2019-03-02T07:19:16.666Z,21.52
2019-03-02T07:19:51.811Z,21.52
2019-03-02T07:20:27.387Z,21.48
2019-03-02T07:21:02.920Z,21.53
2019-03-02T07:21:41.440Z,21.46
2019-03-02T07:22:16.820Z,21.49
2019-03-02T07:22:52.383Z,21.49
2019-03-02T07:23:27.620Z,21.48
2019-03-02T07:24:00.383Z,21.49
2019-03-02T07:24:32.382Z,21.46
2019-03-02T07:25:04.975Z,21.49
2019-03-02T07:25:40.428Z,21.45
2019-03-02T07:26:19.563Z,21.45
2019-03-02T07:26:54.503Z,21.51
2019-03-02T07:27:29.547Z,21.48
2019-03-02T07:28:05.852Z,21.46
2019-03-02T07:28:42.199Z,21.49
2019-03-02T07:29:17.659Z,21.51
2019-03-02T07:29:53.538Z,21.48
2019-03-02T07:30:26.723Z,21.48
2019-03-02T07:30:58.736Z,21.46
2019-03-02T07:31:30.737Z,21.58
2019-03-02T07:32:02.716Z,21.61
2019-03-02T07:32:34.704Z,21.53
2019-03-02T07:33:06.694Z,21.53
2019-03-02T07:33:39.480Z,21.46
2019-03-02T07:34:11.465Z,21.59
2019-03-02T07:34:44.530Z,21.53
2019-03-02T07:35:19.294Z,21.51
2019-03-02T07:35:55.339Z,21.58
2019-03-02T07:36:33.819Z,21.48
2019-03-02T07:37:09.076Z,21.48
2019-03-02T07:37:44.033Z,21.52
2019-03-02T07:38:20.246Z,21.53
2019-03-02T07:38:56.534Z,21.53
2019-03-02T07:39:32.575Z,21.53
2019-03-02T07:40:09.027Z,21.51
2019-03-02T07:40:45.419Z,21.49
2019-03-02T07:41:21.960Z,21.53
2019-03-02T07:41:57.856Z,21.52
2019-03-02T07:42:33.474Z,21.53
2019-03-02T07:43:09.639Z,21.58
2019-03-02T07:43:46.294Z,21.55
2019-03-02T07:44:22.212Z,21.56
2019-03-02T07:44:58.429Z,21.55
2019-03-02T07:45:34.386Z,21.59
2019-03-02T07:46:11.749Z,21.59
2019-03-02T07:46:47.866Z,21.51
2019-03-02T07:47:23.981Z,21.53
2019-03-02T07:48:00.102Z,21.62
2019-03-02T07:48:36.658Z,21.58
2019-03-02T07:49:13.002Z,21.56